Sawyer County Airport Hayward US
ICAO: KHYR
IATA: HYR
Category: Medium
Scheduled Services: No

Elevation: 1216 ft
TransAlt. 18000 ft.

Airport Communications:
MINNEAPOLIS CNTR:126.45
ASOS:113.4
GREEN BAY RDO:113.4
CTAF/UNICOM:122.8

KHYR Zoom In..

Runways:

(A) RW 02 length 5002 ft width 100 ft
LOC 108.50 / hdg 25

(B) RW 16 length 1090 ft width 110 ft
LOC 108.50 / hdg 163

(C) RW 20 length 5002 ft width 100 ft
LOC 108.50 / hdg 205

(D) RW 34 length 1090 ft width 110 ft
LOC 108.50 / hdg 343

Location; KHYR
Day. 23 / Time. 14.53 Zulu
* Altimeter: 29.94
* Temperature: -08° c. -17.6°f.
* Wind from: 360° Speed 06 kn.
Dewpoint: -11° c.
Visibility: 6 Statute Miles.
Clouds: Overcast 800 ft.
Conditions: Light Snow.

KHYR 231453Z AUTO 36006KT 6SM -SN OVC008 M08/M11 A2994 RMK AO2 SNB26 SLP160 P0000 60000 T10781106 51022


Wind From 360°
Speed 06 kn.

YouTube Music Video
 
jpsmedia.com for Web Design  worldairports.se 2018   terms of use